createdAt,value
2019-05-10T00:00:31.905Z,100440.24
2019-05-10T00:03:22.716Z,100435.88
2019-05-10T00:06:12.386Z,100432.69
2019-05-10T00:08:45.939Z,100430.55
2019-05-10T00:11:30.447Z,100438.79
2019-05-10T00:14:08.379Z,100442.16
2019-05-10T00:16:41.234Z,100450.41
2019-05-10T00:19:12.779Z,100445.17
2019-05-10T00:21:44.745Z,100447.09
2019-05-10T00:24:17.735Z,100444.89
2019-05-10T00:26:49.488Z,100445.25
2019-05-10T00:29:21.036Z,100435.02
2019-05-10T00:31:52.697Z,100431.88
2019-05-10T00:34:24.865Z,100442.09
2019-05-10T00:36:56.511Z,100432.05
2019-05-10T00:39:28.068Z,100436.31
2019-05-10T00:41:59.729Z,100436.89
2019-05-10T00:44:31.685Z,100437.28
2019-05-10T00:47:03.134Z,100436.42
2019-05-10T00:49:34.890Z,100442.49
2019-05-10T00:52:06.652Z,100436.14
2019-05-10T00:54:39.328Z,100428.45
2019-05-10T00:57:11.088Z,100424.22
2019-05-10T00:59:42.642Z,100415.06
2019-05-10T01:02:14.633Z,100418.52
2019-05-10T01:04:47.276Z,100419.67
2019-05-10T01:07:18.730Z,100424.23
2019-05-10T01:09:49.495Z,100428.16
2019-05-10T01:12:20.809Z,100425.55
2019-05-10T01:14:52.258Z,100414.58
2019-05-10T01:17:23.605Z,100413.31
2019-05-10T01:19:56.229Z,100409.74
2019-05-10T01:22:27.711Z,100419.00
2019-05-10T01:24:59.600Z,100429.97
2019-05-10T01:27:31.453Z,100433.77
2019-05-10T01:30:03.323Z,100431.29
2019-05-10T01:32:35.115Z,100427.77
2019-05-10T01:35:07.550Z,100429.34
2019-05-10T01:37:39.202Z,100437.52
2019-05-10T01:40:11.635Z,100436.80
2019-05-10T01:42:43.026Z,100434.42
2019-05-10T01:45:16.176Z,100436.37
2019-05-10T01:47:47.669Z,100446.72
2019-05-10T01:50:19.536Z,100444.81
2019-05-10T01:52:52.204Z,100455.23
2019-05-10T01:55:23.565Z,100457.28
2019-05-10T01:57:55.325Z,100460.09
2019-05-10T02:00:27.274Z,100463.23
2019-05-10T02:02:59.163Z,100462.42
2019-05-10T02:05:30.804Z,100454.69
2019-05-10T02:08:02.438Z,100463.50
2019-05-10T02:10:34.401Z,100464.83
2019-05-10T02:13:05.854Z,100469.77
2019-05-10T02:15:37.708Z,100459.83
2019-05-10T02:18:09.466Z,100463.05
2019-05-10T02:20:41.123Z,100466.76
2019-05-10T02:23:12.779Z,100481.71
2019-05-10T02:25:45.564Z,100483.13
2019-05-10T02:28:17.215Z,100473.50
2019-05-10T02:30:49.276Z,100481.05
2019-05-10T02:33:21.141Z,100486.02
2019-05-10T02:35:52.800Z,100490.66
2019-05-10T02:38:24.462Z,100500.25
2019-05-10T02:40:56.410Z,100509.20
2019-05-10T02:43:28.093Z,100513.16
2019-05-10T02:45:59.520Z,100511.22
2019-05-10T02:48:31.270Z,100515.95
2019-05-10T02:51:02.725Z,100515.30
2019-05-10T02:53:35.026Z,100516.77
2019-05-10T02:56:06.545Z,100510.98
2019-05-10T02:58:39.110Z,100504.80
2019-05-10T03:01:14.366Z,100500.76
2019-05-10T03:03:50.111Z,100511.63
2019-05-10T03:06:24.843Z,100517.45
2019-05-10T03:08:56.945Z,100520.91
2019-05-10T03:11:31.630Z,100512.00
2019-05-10T03:14:06.049Z,100519.45
2019-05-10T03:16:39.813Z,100520.20
2019-05-10T03:19:12.780Z,100527.25
2019-05-10T03:21:46.241Z,100530.11
2019-05-10T03:24:18.200Z,100531.57
2019-05-10T03:26:51.501Z,100536.08
2019-05-10T03:29:23.665Z,100532.37
2019-05-10T03:31:55.534Z,100539.21
2019-05-10T03:34:27.075Z,100544.10
2019-05-10T03:36:58.729Z,100540.46
2019-05-10T03:39:30.595Z,100542.73
2019-05-10T03:42:02.651Z,100545.11
2019-05-10T03:44:34.616Z,100547.81
2019-05-10T03:47:06.473Z,100550.52
2019-05-10T03:49:37.339Z,100542.91
2019-05-10T03:52:08.793Z,100538.77
2019-05-10T03:54:41.330Z,100540.79
2019-05-10T03:57:14.627Z,100546.72
2019-05-10T03:59:48.025Z,100543.59
2019-05-10T04:02:19.886Z,100547.05
2019-05-10T04:04:51.746Z,100551.33
2019-05-10T04:07:23.605Z,100552.56
2019-05-10T04:09:55.266Z,100545.48
2019-05-10T04:12:27.144Z,100545.23
2019-05-10T04:14:59.098Z,100543.91
2019-05-10T04:17:30.833Z,100543.10
2019-05-10T04:20:02.602Z,100542.26
2019-05-10T04:22:34.555Z,100540.68
2019-05-10T04:25:06.321Z,100550.57
2019-05-10T04:27:37.865Z,100545.28
2019-05-10T04:30:10.480Z,100547.80
2019-05-10T04:32:42.917Z,100551.48
2019-05-10T04:35:14.889Z,100548.98
2019-05-10T04:37:46.848Z,100552.05
2019-05-10T04:40:18.709Z,100552.63
2019-05-10T04:42:51.389Z,100555.83
2019-05-10T04:45:23.033Z,100561.88
2019-05-10T04:47:54.601Z,100561.30
2019-05-10T04:50:26.595Z,100557.41
2019-05-10T04:52:58.726Z,100558.53
2019-05-10T04:55:30.275Z,100559.39
2019-05-10T04:58:01.033Z,100562.73
2019-05-10T05:00:32.380Z,100565.39
2019-05-10T05:03:04.520Z,100566.82
2019-05-10T05:05:35.973Z,100566.27
2019-05-10T05:08:08.037Z,100565.51
2019-05-10T05:10:39.481Z,100567.07
2019-05-10T05:13:10.454Z,100564.83
2019-05-10T05:15:41.564Z,100567.86
2019-05-10T05:18:13.953Z,100563.48
2019-05-10T05:20:45.482Z,100574.81
2019-05-10T05:23:17.244Z,100572.41
2019-05-10T05:25:48.690Z,100582.25
2019-05-10T05:28:23.140Z,100585.17
2019-05-10T05:30:53.753Z,100580.52
2019-05-10T05:33:25.614Z,100577.03
2019-05-10T05:35:57.172Z,100576.77
2019-05-10T05:38:28.939Z,100574.16
2019-05-10T05:41:00.571Z,100577.25
2019-05-10T05:43:32.427Z,100580.30
2019-05-10T05:46:04.292Z,100582.08
2019-05-10T05:48:40.426Z,100577.44
2019-05-10T05:51:09.649Z,100568.45
2019-05-10T05:53:42.890Z,100559.02
2019-05-10T05:56:14.860Z,100556.13
2019-05-10T05:58:47.079Z,100555.11
2019-05-10T06:01:26.152Z,100550.25
2019-05-10T06:03:53.656Z,100544.66
2019-05-10T06:06:25.508Z,100534.77
2019-05-10T06:08:59.611Z,100540.42
2019-05-10T06:11:35.981Z,100531.61
2019-05-10T06:14:10.925Z,100540.31
2019-05-10T06:16:39.101Z,100547.07
2019-05-10T06:19:09.832Z,100544.02
2019-05-10T06:21:41.082Z,100544.41
2019-05-10T06:24:14.000Z,100545.28
2019-05-10T06:26:45.820Z,100545.03
2019-05-10T06:29:19.720Z,100533.99
2019-05-10T06:31:50.867Z,100533.02
2019-05-10T06:34:22.331Z,100540.47
2019-05-10T06:36:54.178Z,100547.73
2019-05-10T06:39:25.937Z,100544.13
2019-05-10T06:41:58.437Z,100541.60
2019-05-10T06:44:31.289Z,100543.23
2019-05-10T06:47:08.105Z,100543.23
2019-05-10T06:49:41.695Z,100547.80
2019-05-10T06:52:10.285Z,100547.97
2019-05-10T06:54:42.112Z,100543.71
2019-05-10T06:57:17.464Z,100534.66
2019-05-10T06:59:48.188Z,100531.05
2019-05-10T07:02:26.015Z,100525.81
2019-05-10T07:04:53.651Z,100539.77
2019-05-10T07:07:42.605Z,100549.28
2019-05-10T07:10:08.373Z,100549.67
2019-05-10T07:12:32.067Z,100557.45
2019-05-10T07:15:05.510Z,100557.02
2019-05-10T07:17:43.636Z,100550.78
2019-05-10T07:20:10.946Z,100543.94
2019-05-10T07:22:42.814Z,100539.92
2019-05-10T07:25:14.468Z,100543.55
2019-05-10T07:27:49.990Z,100538.71
2019-05-10T07:30:31.289Z,100538.85
2019-05-10T07:33:02.870Z,100544.83
2019-05-10T07:35:37.033Z,100552.04
2019-05-10T07:38:08.404Z,100543.98
2019-05-10T07:40:39.861Z,100536.09
2019-05-10T07:43:11.815Z,100540.12
2019-05-10T07:45:43.160Z,100541.17
2019-05-10T07:48:14.921Z,100539.77
2019-05-10T07:50:49.391Z,100540.50
2019-05-10T07:53:23.085Z,100540.00
2019-05-10T07:55:52.857Z,100540.52
2019-05-10T07:58:24.713Z,100547.86
2019-05-10T08:00:56.792Z,100542.60
2019-05-10T08:03:29.844Z,100535.84
2019-05-10T08:06:02.189Z,100537.73
2019-05-10T08:08:33.796Z,100535.23
2019-05-10T08:11:05.553Z,100535.03
2019-05-10T08:13:39.356Z,100535.09
2019-05-10T08:16:18.911Z,100536.36
2019-05-10T08:18:44.001Z,100541.97
2019-05-10T08:21:23.797Z,100527.93
2019-05-10T08:23:48.943Z,100537.92
2019-05-10T08:26:24.618Z,100541.48
2019-05-10T08:28:53.685Z,100529.17
2019-05-10T08:31:26.389Z,100528.14
2019-05-10T08:33:59.269Z,100534.11
2019-05-10T08:36:32.307Z,100527.71
2019-05-10T08:39:10.636Z,100526.75
2019-05-10T08:41:39.727Z,100529.65
2019-05-10T08:44:18.792Z,100519.72
2019-05-10T08:46:44.453Z,100527.58
2019-05-10T08:49:22.095Z,100529.16
2019-05-10T08:51:52.075Z,100525.70
2019-05-10T08:54:26.238Z,100533.55
2019-05-10T08:57:01.080Z,100524.55
2019-05-10T08:59:30.829Z,100523.70
2019-05-10T09:02:02.331Z,100527.77
2019-05-10T09:04:42.230Z,100534.32
2019-05-10T09:07:07.046Z,100532.19
2019-05-10T09:09:45.559Z,100531.59
2019-05-10T09:12:12.285Z,100526.27
2019-05-10T09:14:44.129Z,100519.53
2019-05-10T09:17:23.761Z,100517.84
2019-05-10T09:19:48.657Z,100513.36
2019-05-10T09:22:25.965Z,100520.84
2019-05-10T09:24:53.301Z,100516.48
2019-05-10T09:27:29.192Z,100517.43
2019-05-10T09:29:56.727Z,100516.95
2019-05-10T09:32:29.000Z,100502.88
2019-05-10T09:35:07.871Z,100499.47
2019-05-10T09:37:34.429Z,100489.69
2019-05-10T09:40:10.044Z,100501.10
2019-05-10T09:42:43.582Z,100492.59
2019-05-10T09:45:14.468Z,100492.14
2019-05-10T09:47:46.090Z,100495.05
2019-05-10T09:50:17.913Z,100490.89
2019-05-10T09:52:49.848Z,100483.83
2019-05-10T09:55:21.283Z,100479.92
2019-05-10T09:57:54.272Z,100489.23
2019-05-10T10:00:34.002Z,100486.97
2019-05-10T10:03:08.303Z,100483.54
2019-05-10T10:05:40.334Z,100484.29
2019-05-10T10:08:12.054Z,100485.52
2019-05-10T10:10:43.397Z,100487.31
2019-05-10T10:13:25.536Z,100481.77
2019-05-10T10:15:52.033Z,100479.52
2019-05-10T10:18:25.373Z,100471.61
2019-05-10T10:20:55.554Z,100477.00
2019-05-10T10:23:30.697Z,100480.30
2019-05-10T10:26:00.402Z,100469.12
2019-05-10T10:28:31.943Z,100469.92
2019-05-10T10:31:05.467Z,100459.16
2019-05-10T10:33:37.970Z,100463.69
2019-05-10T10:36:10.693Z,100457.06
2019-05-10T10:38:45.456Z,100460.53
2019-05-10T10:41:19.181Z,100460.19
2019-05-10T10:43:49.048Z,100460.12
2019-05-10T10:46:20.502Z,100462.31
2019-05-10T10:48:52.253Z,100463.08
2019-05-10T10:51:26.654Z,100458.48
2019-05-10T10:53:58.276Z,100455.98
2019-05-10T10:56:29.981Z,100459.10
2019-05-10T10:59:01.663Z,100462.88
2019-05-10T11:01:47.266Z,100465.44
2019-05-10T11:04:08.251Z,100470.55
2019-05-10T11:06:40.599Z,100468.23
2019-05-10T11:09:12.154Z,100458.95
2019-05-10T11:11:44.900Z,100458.63
2019-05-10T11:14:17.614Z,100457.81
2019-05-10T11:16:52.831Z,100463.35
2019-05-10T11:19:22.437Z,100456.61
2019-05-10T11:21:54.417Z,100451.77
2019-05-10T11:24:26.005Z,100438.55
2019-05-10T11:26:56.630Z,100443.45
2019-05-10T11:29:28.197Z,100440.15
2019-05-10T11:32:15.426Z,100440.98
2019-05-10T11:34:37.329Z,100441.72
2019-05-10T11:37:07.525Z,100452.53
2019-05-10T11:39:45.323Z,100441.30
2019-05-10T11:42:15.395Z,100440.14
2019-05-10T11:44:50.277Z,100442.05
2019-05-10T11:47:23.974Z,100451.07
2019-05-10T11:49:51.834Z,100437.69
2019-05-10T11:52:29.097Z,100438.55
2019-05-10T11:54:57.192Z,100439.45
2019-05-10T11:57:32.076Z,100432.25
2019-05-10T12:00:03.585Z,100434.30
2019-05-10T12:07:45.829Z,100432.66
2019-05-10T12:10:21.140Z,100432.66
2019-05-10T12:15:25.347Z,100429.01
2019-05-10T12:23:03.850Z,100420.74
2019-05-10T12:25:51.461Z,100425.02
2019-05-10T12:26:06.388Z,100443.86
2019-05-10T12:26:08.471Z,100429.86
2019-05-10T12:26:18.022Z,100429.37
2019-05-10T12:26:18.180Z,100437.58
2019-05-10T12:26:21.451Z,100433.95
2019-05-10T12:28:08.675Z,100419.70
2019-05-10T12:30:41.462Z,100410.71
2019-05-10T12:33:23.949Z,100412.41
2019-05-10T12:35:47.487Z,100410.85
2019-05-10T12:38:23.545Z,100399.98
2019-05-10T12:40:52.178Z,100392.73
2019-05-10T12:43:24.121Z,100395.80
2019-05-10T12:45:55.586Z,100390.27
2019-05-10T12:48:27.338Z,100391.16
2019-05-10T12:51:04.235Z,100395.27
2019-05-10T12:53:31.640Z,100387.91
2019-05-10T12:56:03.372Z,100390.06
2019-05-10T12:58:35.089Z,100377.59
2019-05-10T13:01:06.935Z,100384.95
2019-05-10T13:03:38.402Z,100380.07
2019-05-10T13:06:09.949Z,100381.23
2019-05-10T13:08:41.704Z,100370.77
2019-05-10T13:11:18.490Z,100371.03
2019-05-10T13:13:46.759Z,100361.89
2019-05-10T13:16:18.618Z,100370.30
2019-05-10T13:18:52.545Z,100366.23
2019-05-10T13:21:24.077Z,100368.74
2019-05-10T13:23:55.741Z,100373.78
2019-05-10T13:26:27.701Z,100370.45
2019-05-10T13:29:02.164Z,100360.94
2019-05-10T13:31:42.211Z,100362.78
2019-05-10T13:34:05.837Z,100363.11
2019-05-10T13:36:39.209Z,100371.00
2019-05-10T13:39:10.728Z,100368.00
2019-05-10T13:41:42.541Z,100361.55
2019-05-10T13:44:14.306Z,100372.59
2019-05-10T13:46:46.158Z,100360.88
2019-05-10T13:49:17.818Z,100364.83
2019-05-10T13:51:50.072Z,100360.70
2019-05-10T13:54:21.627Z,100367.91
2019-05-10T13:56:54.959Z,100365.64
2019-05-10T13:59:26.683Z,100356.65
2019-05-10T14:01:58.852Z,100357.53
2019-05-10T14:04:34.132Z,100352.66
2019-05-10T14:07:04.112Z,100366.62
2019-05-10T14:09:35.555Z,100364.80
2019-05-10T14:12:07.523Z,100360.19
2019-05-10T14:14:38.963Z,100363.93
2019-05-10T14:17:10.619Z,100363.52
2019-05-10T14:19:42.174Z,100356.05
2019-05-10T14:22:14.245Z,100365.85
2019-05-10T14:24:46.648Z,100364.88
2019-05-10T14:27:18.980Z,100365.95
2019-05-10T14:29:50.647Z,100362.58
2019-05-10T14:32:22.400Z,100354.53
2019-05-10T14:34:53.943Z,100355.30
2019-05-10T14:37:25.600Z,100355.30
2019-05-10T14:39:59.918Z,100353.94
2019-05-10T14:42:33.563Z,100349.94
2019-05-10T14:45:05.783Z,100352.03
2019-05-10T14:47:46.763Z,100349.88
2019-05-10T14:50:11.661Z,100353.14
2019-05-10T14:52:43.368Z,100349.86
2019-05-10T14:55:15.482Z,100352.91
2019-05-10T14:57:47.348Z,100368.12
2019-05-10T15:00:19.209Z,100363.56
2019-05-10T15:02:50.859Z,100362.64
2019-05-10T15:05:22.518Z,100363.21
2019-05-10T15:07:54.070Z,100361.49
2019-05-10T15:10:25.927Z,100361.86
2019-05-10T15:12:57.781Z,100360.30
2019-05-10T15:15:30.925Z,100366.09
2019-05-10T15:18:03.661Z,100365.48
2019-05-10T15:20:35.997Z,100371.20
2019-05-10T15:23:07.682Z,100374.38
2019-05-10T15:25:55.463Z,100378.98
2019-05-10T15:28:13.342Z,100372.46
2019-05-10T15:30:49.352Z,100374.17
2019-05-10T15:33:18.608Z,100377.05
2019-05-10T15:35:51.937Z,100369.06
2019-05-10T15:38:24.061Z,100373.16
2019-05-10T15:40:55.713Z,100365.89
2019-05-10T15:43:27.884Z,100366.91
2019-05-10T15:45:59.640Z,100356.53
2019-05-10T15:48:31.502Z,100360.17
2019-05-10T15:51:03.052Z,100359.77
2019-05-10T15:53:35.325Z,100364.30
2019-05-10T15:56:06.977Z,100360.86
2019-05-10T15:58:42.120Z,100363.60
2019-05-10T16:01:14.444Z,100361.63
2019-05-10T16:03:45.724Z,100357.97
2019-05-10T16:06:17.493Z,100359.67
2019-05-10T16:08:49.452Z,100357.66
2019-05-10T16:11:21.427Z,100353.13
2019-05-10T16:13:54.661Z,100360.41
2019-05-10T16:16:30.357Z,100350.12
2019-05-10T16:18:59.555Z,100345.85
2019-05-10T16:21:31.115Z,100347.72
2019-05-10T16:24:02.862Z,100346.63
2019-05-10T16:26:34.614Z,100354.69
2019-05-10T16:29:06.226Z,100348.38
2019-05-10T16:31:37.134Z,100347.58
2019-05-10T16:34:08.347Z,100353.23
2019-05-10T16:36:40.222Z,100352.08
2019-05-10T16:39:11.872Z,100353.45
2019-05-10T16:41:44.029Z,100345.39
2019-05-10T16:44:15.514Z,100349.44
2019-05-10T16:46:47.032Z,100353.23
2019-05-10T16:49:19.099Z,100347.23
2019-05-10T16:51:51.416Z,100346.35
2019-05-10T16:54:25.375Z,100348.19
2019-05-10T16:57:01.148Z,100349.67
2019-05-10T16:59:31.227Z,100351.97
2019-05-10T17:02:06.053Z,100353.49
2019-05-10T17:04:37.451Z,100351.55
2019-05-10T17:07:12.802Z,100353.33
2019-05-10T17:09:42.578Z,100351.28
2019-05-10T17:12:14.458Z,100357.16
2019-05-10T17:14:50.461Z,100356.27
2019-05-10T17:17:19.590Z,100359.19
2019-05-10T17:19:51.563Z,100362.64
2019-05-10T17:22:23.217Z,100365.78
2019-05-10T17:24:56.792Z,100365.37
2019-05-10T17:27:27.643Z,100364.75
2019-05-10T17:29:58.957Z,100369.53
2019-05-10T17:32:29.860Z,100361.91
2019-05-10T17:35:04.603Z,100371.55
2019-05-10T17:37:35.910Z,100370.64
2019-05-10T17:40:10.638Z,100363.73
2019-05-10T17:42:43.518Z,100362.45
2019-05-10T17:45:16.502Z,100369.27
2019-05-10T17:47:48.160Z,100365.82
2019-05-10T17:50:19.930Z,100359.45
2019-05-10T17:52:52.104Z,100361.52
2019-05-10T17:55:25.617Z,100362.53
2019-05-10T17:57:57.351Z,100361.77
2019-05-10T18:00:29.303Z,100359.84
2019-05-10T18:03:01.570Z,100363.90
2019-05-10T18:05:34.179Z,100367.11
2019-05-10T18:08:06.317Z,100369.83
2019-05-10T18:10:38.068Z,100363.23
2019-05-10T18:13:09.618Z,100365.83
2019-05-10T18:15:41.378Z,100359.14
2019-05-10T18:18:13.498Z,100364.72
2019-05-10T18:20:45.407Z,100365.52
2019-05-10T18:23:22.719Z,100362.18
2019-05-10T18:25:52.429Z,100368.39
2019-05-10T18:28:23.441Z,100361.55
2019-05-10T18:30:55.302Z,100360.34
2019-05-10T18:33:27.679Z,100357.75
2019-05-10T18:35:59.423Z,100361.27
2019-05-10T18:38:37.015Z,100358.70
2019-05-10T18:41:09.516Z,100355.58
2019-05-10T18:43:40.620Z,100359.89
2019-05-10T18:46:11.473Z,100360.77
2019-05-10T18:48:43.458Z,100363.56
2019-05-10T18:51:17.860Z,100363.31
2019-05-10T18:53:48.589Z,100363.30
2019-05-10T18:56:25.326Z,100368.55
2019-05-10T18:58:53.329Z,100367.69
2019-05-10T19:01:25.723Z,100368.48
2019-05-10T19:03:57.455Z,100371.03
2019-05-10T19:06:31.309Z,100361.56
2019-05-10T19:09:02.418Z,100366.93
2019-05-10T19:11:39.127Z,100374.58
2019-05-10T19:14:09.430Z,100367.34
2019-05-10T19:16:41.370Z,100367.21
2019-05-10T19:19:13.123Z,100369.25
2019-05-10T19:21:44.782Z,100377.24
2019-05-10T19:24:16.640Z,100378.56
2019-05-10T19:26:48.102Z,100379.11
2019-05-10T19:29:19.951Z,100377.88
2019-05-10T19:31:51.497Z,100375.53
2019-05-10T19:34:22.947Z,100381.96
2019-05-10T19:36:54.709Z,100376.19
2019-05-10T19:39:26.461Z,100380.53
2019-05-10T19:42:03.858Z,100378.19
2019-05-10T19:44:34.759Z,100388.84
2019-05-10T19:47:04.807Z,100389.23
2019-05-10T19:49:37.591Z,100388.10
2019-05-10T19:52:09.555Z,100390.03
2019-05-10T19:54:41.103Z,100389.36
2019-05-10T19:57:16.189Z,100385.91
2019-05-10T19:59:48.704Z,100391.23
2019-05-10T20:02:19.674Z,100390.03
2019-05-10T20:04:51.212Z,100393.44
2019-05-10T20:07:23.175Z,100390.48
2019-05-10T20:09:55.028Z,100385.70
2019-05-10T20:12:26.884Z,100402.32
2019-05-10T20:14:57.652Z,100394.20
2019-05-10T20:17:29.075Z,100400.33
2019-05-10T20:20:00.827Z,100401.80
2019-05-10T20:22:36.079Z,100403.37
2019-05-10T20:25:08.950Z,100402.84
2019-05-10T20:27:40.402Z,100404.81
2019-05-10T20:30:12.363Z,100405.23
2019-05-10T20:32:43.824Z,100403.76
2019-05-10T20:35:15.362Z,100403.67
2019-05-10T20:38:00.817Z,100405.16
2019-05-10T20:40:20.422Z,100409.67
2019-05-10T20:42:51.864Z,100411.53
2019-05-10T20:45:23.633Z,100413.66
2019-05-10T20:47:55.276Z,100414.47
2019-05-10T20:50:27.036Z,100418.88
2019-05-10T20:52:59.099Z,100420.97
2019-05-10T20:55:30.660Z,100426.08
2019-05-10T20:58:03.512Z,100427.14
2019-05-10T21:00:34.992Z,100428.42
2019-05-10T21:03:07.351Z,100426.52
2019-05-10T21:05:39.833Z,100426.27
2019-05-10T21:08:17.143Z,100433.48
2019-05-10T21:10:44.782Z,100440.92
2019-05-10T21:13:16.636Z,100443.48
2019-05-10T21:15:50.445Z,100445.42
2019-05-10T21:18:21.906Z,100450.87
2019-05-10T21:20:53.665Z,100452.95
2019-05-10T21:23:25.408Z,100457.44
2019-05-10T21:25:57.273Z,100462.12
2019-05-10T21:28:28.919Z,100464.54
2019-05-10T21:31:00.717Z,100463.16
2019-05-10T21:33:32.541Z,100465.92
2019-05-10T21:36:03.215Z,100472.88
2019-05-10T21:38:34.417Z,100474.94
2019-05-10T21:41:06.072Z,100478.70
2019-05-10T21:43:37.933Z,100484.63
2019-05-10T21:46:08.697Z,100483.06
2019-05-10T21:48:39.809Z,100481.73
2019-05-10T21:51:11.357Z,100483.72
2019-05-10T21:53:43.524Z,100483.19
2019-05-10T21:56:14.972Z,100485.85
2019-05-10T21:58:46.531Z,100476.88
2019-05-10T22:01:18.903Z,100471.84
2019-05-10T22:03:50.247Z,100475.15
2019-05-10T22:06:21.809Z,100478.17
2019-05-10T22:08:53.354Z,100478.56
2019-05-10T22:11:25.418Z,100482.80
2019-05-10T22:13:56.870Z,100477.56
2019-05-10T22:16:28.527Z,100479.33
2019-05-10T22:19:02.087Z,100480.70
2019-05-10T22:21:33.580Z,100478.63
2019-05-10T22:24:05.428Z,100484.52
2019-05-10T22:26:37.189Z,100486.66
2019-05-10T22:29:09.055Z,100486.67
2019-05-10T22:31:40.498Z,100482.69
2019-05-10T22:34:11.949Z,100485.14
2019-05-10T22:36:43.718Z,100489.94
2019-05-10T22:39:14.470Z,100487.22
2019-05-10T22:41:45.688Z,100483.44
2019-05-10T22:44:17.548Z,100490.03
2019-05-10T22:46:49.401Z,100484.02
2019-05-10T22:49:20.952Z,100484.65
2019-05-10T22:51:52.962Z,100482.84
2019-05-10T22:54:24.988Z,100487.05
2019-05-10T22:56:56.736Z,100486.58
2019-05-10T22:59:28.493Z,100487.48
2019-05-10T23:02:01.375Z,100480.45
2019-05-10T23:04:32.833Z,100481.56
2019-05-10T23:07:04.590Z,100485.23
2019-05-10T23:09:36.038Z,100490.03
2019-05-10T23:12:07.825Z,100492.33
2019-05-10T23:14:39.553Z,100493.08
2019-05-10T23:17:11.414Z,100491.63
2019-05-10T23:19:43.270Z,100488.28
2019-05-10T23:22:14.823Z,100487.31
2019-05-10T23:24:46.384Z,100487.95
2019-05-10T23:27:18.034Z,100486.75
2019-05-10T23:29:49.685Z,100482.09
2019-05-10T23:32:21.644Z,100488.95
2019-05-10T23:34:53.303Z,100488.55
2019-05-10T23:37:24.961Z,100491.36
2019-05-10T23:39:56.718Z,100482.58
2019-05-10T23:42:28.372Z,100488.02
2019-05-10T23:44:59.927Z,100489.48
2019-05-10T23:47:31.682Z,100483.63
2019-05-10T23:50:02.653Z,100483.38
2019-05-10T23:52:34.161Z,100488.95
2019-05-10T23:55:06.855Z,100484.48
2019-05-10T23:57:38.317Z,100484.76
